Time;durP1;ratioP1;P1;durP2;ratioP2;P2;SDS_P1;SDS_P2;PMS_P1;PMS_P2;Temp;Humidity;BMP_temperature;BMP_pressure;BME280_temperature;BME280_humidity;BME280_pressure;Samples;Min_cycle;Max_cycle;Signal;HPM_P1;HPM_P2
2022/12/11 00:01:32;;;;;;;4.78;3.67;;;15.50;46.40;;;;;;5087375;27;45181;-73
2022/12/11 00:03:59;;;;;;;3.60;3.30;;;15.50;46.50;;;;;;5088030;28;45304;-73
2022/12/11 00:06:26;;;;;;;4.47;3.30;;;15.40;46.50;;;;;;5087949;28;45288;-74
2022/12/11 00:08:55;;;;;;;5.28;3.60;;;15.50;46.50;;;;;;5087558;28;45372;-74
2022/12/11 00:11:22;;;;;;;3.72;3.42;;;15.40;46.50;;;;;;5086974;28;45247;-74
2022/12/11 00:13:49;;;;;;;4.05;3.60;;;15.40;46.50;;;;;;5087397;28;45198;-74
2022/12/11 00:16:16;;;;;;;4.57;3.33;;;15.30;46.50;;;;;;5088015;28;45470;-74
2022/12/11 00:18:43;;;;;;;4.38;3.40;;;15.30;46.60;;;;;;5087700;28;46678;-74
2022/12/11 00:21:13;;;;;;;4.40;3.50;;;15.30;46.70;;;;;;5087673;28;45264;-74
2022/12/11 00:23:39;;;;;;;4.10;3.35;;;15.30;46.70;;;;;;5087716;28;45254;-74
2022/12/11 00:26:09;;;;;;;5.07;3.35;;;15.30;46.60;;;;;;5088005;28;45284;-74
2022/12/11 00:28:36;;;;;;;3.72;3.08;;;15.30;46.50;;;;;;5087350;28;45550;-73
2022/12/11 00:31:04;;;;;;;4.25;3.30;;;15.30;46.50;;;;;;5087515;28;45825;-74
2022/12/11 00:33:31;;;;;;;5.03;3.38;;;15.30;46.40;;;;;;5087387;28;45312;-73
2022/12/11 00:35:58;;;;;;;4.15;3.10;;;15.40;46.30;;;;;;5088750;28;45270;-73
2022/12/11 00:38:25;;;;;;;3.50;3.20;;;15.40;46.30;;;;;;5088248;28;47018;-73
2022/12/11 00:40:52;;;;;;;3.92;3.35;;;15.40;46.20;;;;;;5087929;28;45458;-74
2022/12/11 00:43:20;;;;;;;3.38;2.90;;;15.50;46.10;;;;;;5087770;28;45185;-74
2022/12/11 00:45:47;;;;;;;3.92;3.30;;;15.50;46.00;;;;;;5087991;28;45207;-74
2022/12/11 00:48:14;;;;;;;3.63;3.00;;;15.60;45.90;;;;;;5107208;27;45768;-74
2022/12/11 00:50:41;;;;;;;4.28;3.10;;;15.60;45.80;;;;;;5090239;27;45324;-74
2022/12/11 00:53:08;;;;;;;4.03;3.20;;;15.70;45.70;;;;;;5087539;28;45279;-74
2022/12/11 00:55:36;;;;;;;3.92;2.90;;;15.70;45.60;;;;;;5088371;28;45449;-74
2022/12/11 00:58:03;;;;;;;3.47;3.05;;;15.70;45.50;;;;;;5086821;28;46499;-73
2022/12/11 01:00:32;;;;;;;4.15;2.85;;;15.70;45.50;;;;;;5087484;28;45226;-74
2022/12/11 01:02:59;;;;;;;4.13;3.00;;;15.70;45.40;;;;;;5088059;28;45186;-74
2022/12/11 01:05:26;;;;;;;3.60;3.10;;;15.70;45.40;;;;;;5088525;28;45376;-74
2022/12/11 01:07:53;;;;;;;3.90;3.10;;;15.60;45.30;;;;;;5087476;28;45397;-74
2022/12/11 01:10:26;;;;;;;4.43;3.42;;;15.60;45.40;;;;;;5087382;28;45316;-74
2022/12/11 01:12:53;;;;;;;3.85;3.00;;;15.60;45.40;;;;;;5088086;28;45408;-74
2022/12/11 01:15:21;;;;;;;3.50;2.85;;;15.60;45.40;;;;;;5090769;28;45116;-74
2022/12/11 01:17:50;;;;;;;3.50;2.80;;;15.60;45.40;;;;;;5090217;28;46391;-74
2022/12/11 01:20:18;;;;;;;3.63;2.80;;;15.50;45.50;;;;;;5090446;28;45326;-74
2022/12/11 01:22:45;;;;;;;2.78;2.50;;;15.50;45.50;;;;;;5090480;28;45184;-73
2022/12/11 01:25:12;;;;;;;2.65;2.45;;;15.50;45.50;;;;;;5090639;28;45170;-74
2022/12/11 01:27:39;;;;;;;4.55;3.05;;;15.40;45.50;;;;;;5090376;28;45240;-74
2022/12/11 01:30:08;;;;;;;3.20;2.80;;;15.40;45.60;;;;;;5090871;28;45260;-74
2022/12/11 01:32:35;;;;;;;2.88;2.58;;;15.40;45.70;;;;;;5091104;28;45281;-73
2022/12/11 01:35:04;;;;;;;3.40;2.80;;;15.30;45.60;;;;;;5090809;28;45189;-73
2022/12/11 01:37:31;;;;;;;3.00;2.70;;;15.30;45.70;;;;;;5090055;28;46686;-74
2022/12/11 01:39:58;;;;;;;2.83;2.53;;;15.30;45.70;;;;;;5090113;28;45311;-74
2022/12/11 01:42:26;;;;;;;3.90;2.83;;;15.40;45.70;;;;;;5090286;28;45285;-73
2022/12/11 01:45:35;;;;;;;3.95;2.78;;;15.30;45.60;;;;;;5089671;28;45474;-74
2022/12/11 01:48:05;;;;;;;3.92;2.80;;;15.40;45.60;;;;;;5107303;27;45400;-74
2022/12/11 01:50:36;;;;;;;2.97;2.67;;;15.40;45.50;;;;;;5093639;27;45303;-74
2022/12/11 01:53:03;;;;;;;3.20;2.60;;;15.40;45.40;;;;;;5089774;28;45224;-73
2022/12/11 01:55:30;;;;;;;2.67;2.22;;;15.50;45.40;;;;;;5090178;28;45250;-73
2022/12/11 01:57:57;;;;;;;2.80;2.38;;;15.50;45.20;;;;;;5089216;28;45648;-72
2022/12/11 02:00:24;;;;;;;2.30;2.10;;;15.60;45.10;;;;;;5089247;28;45189;-74
2022/12/11 02:02:51;;;;;;;2.88;2.22;;;15.60;45.00;;;;;;5089821;28;45294;-74
2022/12/11 02:05:18;;;;;;;2.60;2.13;;;15.60;44.90;;;;;;5090114;28;45390;-73
2022/12/11 02:07:48;;;;;;;2.38;2.00;;;15.70;44.90;;;;;;5089646;28;45470;-74
2022/12/11 02:10:15;;;;;;;2.58;2.38;;;15.70;44.90;;;;;;5089588;28;45206;-74
2022/12/11 02:12:48;;;;;;;2.40;2.17;;;15.70;44.80;;;;;;5089939;28;45384;-74
2022/12/11 02:15:18;;;;;;;2.40;2.20;;;15.60;44.80;;;;;;5089974;28;45151;-73
2022/12/11 02:17:47;;;;;;;2.67;2.35;;;15.60;44.80;;;;;;5089412;28;45480;-74
2022/12/11 02:20:17;;;;;;;3.22;2.20;;;15.60;44.80;;;;;;5089568;28;45245;-74
2022/12/11 02:23:05;;;;;;;2.75;2.03;;;15.60;44.80;;;;;;5089630;28;45308;-74
2022/12/11 02:25:33;;;;;;;3.42;2.28;;;15.60;44.80;;;;;;5089291;27;45266;-74
2022/12/11 02:28:17;;;;;;;2.97;2.40;;;15.50;44.80;;;;;;5089337;28;45753;-74
2022/12/11 02:30:44;;;;;;;3.33;2.35;;;15.50;44.80;;;;;;5089403;28;45190;-74
2022/12/11 02:33:11;;;;;;;2.58;2.35;;;15.50;44.90;;;;;;5089513;28;45182;-74
2022/12/11 02:35:39;;;;;;;2.67;2.35;;;15.40;44.90;;;;;;5089431;28;45260;-74
2022/12/11 02:38:08;;;;;;;2.70;2.15;;;15.40;45.00;;;;;;5089145;28;45480;-74
2022/12/11 02:40:36;;;;;;;3.38;2.22;;;15.40;45.00;;;;;;5089282;28;45195;-73
2022/12/11 02:43:04;;;;;;;2.50;2.10;;;15.30;45.00;;;;;;5089424;28;45420;-73
2022/12/11 02:45:32;;;;;;;2.63;2.00;;;15.30;45.10;;;;;;5089487;28;45459;-74
2022/12/11 02:47:59;;;;;;;2.22;2.03;;;15.40;45.10;;;;;;5106029;27;48308;-74
2022/12/11 02:50:26;;;;;;;2.97;2.40;;;15.30;45.10;;;;;;5093574;27;45174;-74
2022/12/11 02:52:54;;;;;;;2.40;2.20;;;15.30;45.00;;;;;;5088889;28;45365;-73
2022/12/11 02:55:21;;;;;;;2.40;2.20;;;15.30;45.00;;;;;;5089120;28;45302;-74
2022/12/11 02:57:50;;;;;;;2.75;2.00;;;15.40;44.90;;;;;;5088691;28;46992;-74
2022/12/11 03:00:17;;;;;;;2.72;2.35;;;15.40;44.90;;;;;;5088046;28;45369;-74
2022/12/11 03:02:45;;;;;;;2.78;2.55;;;15.50;44.80;;;;;;5088766;28;45446;-74
2022/12/11 03:05:12;;;;;;;2.67;2.30;;;15.50;44.60;;;;;;5089091;28;45232;-74
2022/12/11 03:07:40;;;;;;;2.72;2.38;;;15.60;44.50;;;;;;5088760;28;45959;-74
2022/12/11 03:10:09;;;;;;;2.45;2.13;;;15.60;44.40;;;;;;5088666;28;45462;-74
2022/12/11 03:12:37;;;;;;;2.90;2.25;;;15.60;44.30;;;;;;5088808;28;45352;-74
2022/12/11 03:15:06;;;;;;;2.78;2.53;;;15.70;44.30;;;;;;5088991;28;45519;-74
2022/12/11 03:17:35;;;;;;;3.10;2.30;;;15.60;44.30;;;;;;5088446;28;45451;-74
2022/12/11 03:20:06;;;;;;;2.83;2.53;;;15.60;44.20;;;;;;5088599;28;45339;-74
2022/12/11 03:22:37;;;;;;;2.25;2.05;;;15.60;44.20;;;;;;5088821;28;45302;-74
2022/12/11 03:25:06;;;;;;;4.00;2.75;;;15.60;44.20;;;;;;5088913;28;45446;-73
2022/12/11 03:27:34;;;;;;;2.53;2.20;;;15.60;44.20;;;;;;5088366;28;45721;-74
2022/12/11 03:30:04;;;;;;;2.47;2.28;;;15.60;44.20;;;;;;5088264;28;45383;-74
2022/12/11 03:32:34;;;;;;;2.15;2.03;;;15.50;44.20;;;;;;5088507;28;45147;-73
2022/12/11 03:35:05;;;;;;;2.30;2.10;;;15.50;44.30;;;;;;5088786;28;45584;-74
2022/12/11 03:37:34;;;;;;;2.67;2.10;;;15.50;44.40;;;;;;5087319;28;46271;-73
2022/12/11 03:40:03;;;;;;;2.35;2.15;;;15.40;44.30;;;;;;5088364;28;45383;-74
2022/12/11 03:42:30;;;;;;;1.95;1.77;;;15.40;44.40;;;;;;5088466;28;45118;-74
2022/12/11 03:44:57;;;;;;;2.33;2.13;;;15.40;44.40;;;;;;5088576;28;45533;-74
2022/12/11 03:47:24;;;;;;;2.85;2.30;;;15.40;44.40;;;;;;5100119;27;46409;-73
2022/12/11 03:49:51;;;;;;;3.50;2.20;;;15.40;44.40;;;;;;5097405;27;45362;-73
2022/12/11 03:52:20;;;;;;;1.85;1.73;;;15.40;44.40;;;;;;5087161;28;45253;-74
2022/12/11 03:54:47;;;;;;;2.50;2.30;;;15.50;44.30;;;;;;5087866;28;45331;-74
2022/12/11 03:57:17;;;;;;;2.78;1.98;;;15.50;44.90;;;;;;5087882;28;45300;-74
2022/12/11 03:59:44;;;;;;;3.20;2.08;;;15.50;44.20;;;;;;5088083;28;45126;-74
2022/12/11 04:02:11;;;;;;;2.42;2.13;;;15.50;44.10;;;;;;5088071;28;45185;-74
2022/12/11 04:04:38;;;;;;;2.90;2.13;;;15.50;44.00;;;;;;5088171;28;45300;-74
2022/12/11 04:07:05;;;;;;;2.45;2.25;;;15.60;44.10;;;;;;5087545;28;46576;-74
2022/12/11 04:09:33;;;;;;;3.47;2.38;;;15.60;44.00;;;;;;5087806;28;45383;-74
2022/12/11 04:12:00;;;;;;;2.78;2.15;;;15.50;44.60;;;;;;5087958;28;45265;-74
2022/12/11 04:24:13;;;;;;;3.67;2.50;;;15.50;44.60;;;;;;5085007;28;45265;-74
2022/12/11 04:25:30;;;;;;;2.65;2.45;;;15.40;44.10;;;;;;5053214;28;45558;-74
2022/12/11 04:27:57;;;;;;;2.20;2.00;;;15.30;44.10;;;;;;5087313;28;45592;-74
2022/12/11 04:30:25;;;;;;;3.65;2.13;;;15.30;44.20;;;;;;5087448;28;45253;-74
2022/12/11 04:32:52;;;;;;;2.70;2.45;;;15.40;44.30;;;;;;5087893;28;45166;-73
2022/12/11 04:35:19;;;;;;;2.50;2.30;;;15.30;44.20;;;;;;5087884;28;45358;-74
2022/12/11 04:37:46;;;;;;;3.60;2.30;;;15.30;44.20;;;;;;5087219;28;46691;-73
2022/12/11 04:40:14;;;;;;;2.90;2.60;;;15.30;44.10;;;;;;5087486;28;45355;-74
2022/12/11 04:42:43;;;;;;;2.97;2.40;;;15.40;44.10;;;;;;5087665;28;45189;-73
2022/12/11 04:45:11;;;;;;;2.75;2.22;;;15.40;43.90;;;;;;5087601;28;45403;-73
2022/12/11 04:47:38;;;;;;;2.95;2.35;;;15.50;43.90;;;;;;5100983;27;46649;-74
2022/12/11 04:50:06;;;;;;;3.47;2.70;;;15.50;43.80;;;;;;5094846;27;45252;-74
2022/12/11 04:52:32;;;;;;;2.47;2.28;;;15.60;43.60;;;;;;5087298;28;45301;-74
2022/12/11 04:54:59;;;;;;;2.53;2.33;;;15.60;43.60;;;;;;5087386;28;45306;-73
2022/12/11 04:57:26;;;;;;;2.35;2.13;;;15.60;43.50;;;;;;5087254;28;45390;-72
2022/12/11 04:59:55;;;;;;;3.55;2.65;;;15.70;43.50;;;;;;5086193;28;45182;-74
2022/12/11 05:02:21;;;;;;;3.72;2.67;;;15.70;43.40;;;;;;5087004;28;45186;-74
2022/12/11 05:04:49;;;;;;;4.03;2.35;;;15.70;43.40;;;;;;5087565;28;45276;-74
2022/12/11 05:07:15;;;;;;;3.15;2.70;;;15.70;43.30;;;;;;5086923;28;46561;-74
2022/12/11 05:09:42;;;;;;;2.60;2.25;;;15.70;43.20;;;;;;5086961;28;45239;-74
2022/12/11 05:12:09;;;;;;;2.92;2.50;;;15.70;43.20;;;;;;5087140;28;45159;-74
2022/12/11 05:14:36;;;;;;;2.65;2.33;;;15.70;43.20;;;;;;5087213;28;45471;-74
2022/12/11 05:17:05;;;;;;;3.10;2.80;;;15.60;43.20;;;;;;5086964;28;45647;-74
2022/12/11 05:19:32;;;;;;;5.00;2.80;;;15.60;43.30;;;;;;5086939;28;45363;-74
2022/12/11 05:21:58;;;;;;;3.42;2.65;;;15.60;43.30;;;;;;5087114;28;45271;-74
2022/12/11 05:24:25;;;;;;;3.13;2.83;;;15.50;43.40;;;;;;5087045;28;45512;-74
2022/12/11 05:26:52;;;;;;;3.05;2.60;;;15.50;43.40;;;;;;5086738;28;45737;-74
2022/12/11 05:29:19;;;;;;;4.07;2.92;;;15.40;43.50;;;;;;5086646;28;45295;-74
2022/12/11 05:31:46;;;;;;;2.95;2.47;;;15.40;43.50;;;;;;5086907;28;45311;-74
2022/12/11 05:34:15;;;;;;;3.78;2.78;;;15.40;43.60;;;;;;5087015;28;45244;-73
2022/12/11 05:36:42;;;;;;;4.47;3.00;;;15.30;43.60;;;;;;5086064;28;46675;-74
2022/12/11 05:39:08;;;;;;;3.60;2.92;;;15.30;43.70;;;;;;5087162;28;45316;-74
2022/12/11 05:41:35;;;;;;;3.78;2.65;;;15.30;43.70;;;;;;5087022;28;45241;-72
2022/12/11 05:44:02;;;;;;;3.55;2.72;;;15.30;43.70;;;;;;5086281;28;45427;-73
2022/12/11 05:46:30;;;;;;;3.78;3.22;;;15.30;43.60;;;;;;5090418;27;45560;-74
2022/12/11 05:48:58;;;;;;;3.08;2.78;;;15.30;43.60;;;;;;5103657;27;45181;-74
2022/12/11 05:51:26;;;;;;;3.33;2.65;;;15.30;43.60;;;;;;5086536;28;45241;-73
2022/12/11 05:53:53;;;;;;;3.83;2.70;;;15.40;43.60;;;;;;5086490;28;45289;-74
2022/12/11 05:56:21;;;;;;;3.78;2.88;;;15.40;43.50;;;;;;5086536;28;45504;-73
2022/12/11 05:58:48;;;;;;;3.63;3.20;;;15.50;43.40;;;;;;5086370;27;45307;-73
2022/12/11 06:01:16;;;;;;;3.28;2.70;;;15.50;43.20;;;;;;5090051;28;45388;-74
2022/12/11 06:03:43;;;;;;;3.30;3.00;;;15.60;43.20;;;;;;5090226;28;45199;-73
2022/12/11 06:06:10;;;;;;;3.38;3.00;;;15.60;43.10;;;;;;5089086;28;45458;-73
2022/12/11 06:08:38;;;;;;;3.00;2.65;;;15.60;43.00;;;;;;5089707;28;45195;-74
2022/12/11 06:11:06;;;;;;;4.10;2.75;;;15.70;43.00;;;;;;5089830;28;45362;-73
2022/12/11 06:13:33;;;;;;;3.92;2.70;;;15.70;42.90;;;;;;5090088;28;45381;-74
2022/12/11 06:16:01;;;;;;;2.85;2.42;;;15.70;42.90;;;;;;5089297;28;46419;-74
2022/12/11 06:18:28;;;;;;;3.80;2.60;;;15.70;42.90;;;;;;5089281;28;45301;-74
2022/12/11 06:20:55;;;;;;;4.53;2.67;;;15.70;42.80;;;;;;5089849;28;45297;-74
2022/12/11 06:23:22;;;;;;;2.67;2.42;;;15.70;42.80;;;;;;5089867;28;45494;-73
2022/12/11 06:25:50;;;;;;;3.83;2.92;;;15.70;42.80;;;;;;5089414;28;46692;-73
2022/12/11 06:28:17;;;;;;;3.30;2.85;;;15.60;42.70;;;;;;5088527;28;45162;-74
2022/12/11 06:30:44;;;;;;;3.50;3.13;;;15.60;42.80;;;;;;5089183;28;45276;-74
2022/12/11 06:33:12;;;;;;;3.15;2.45;;;15.50;42.80;;;;;;5089671;28;45388;-74
2022/12/11 06:35:39;;;;;;;4.30;3.15;;;15.50;42.90;;;;;;5089232;28;46346;-74
2022/12/11 06:38:06;;;;;;;3.00;2.70;;;15.50;42.90;;;;;;5089214;28;45162;-74
2022/12/11 06:40:33;;;;;;;4.13;3.15;;;15.40;42.90;;;;;;5089373;28;45516;-74
2022/12/11 06:43:02;;;;;;;3.78;3.05;;;15.40;43.00;;;;;;5089415;28;45456;-74
2022/12/11 06:45:29;;;;;;;3.60;2.65;;;15.30;43.10;;;;;;5089099;28;46367;-73
2022/12/11 06:47:56;;;;;;;3.88;3.13;;;15.30;43.10;;;;;;5105880;27;45178;-74
2022/12/11 06:50:23;;;;;;;4.32;2.95;;;15.30;43.10;;;;;;5094196;27;45337;-74
2022/12/11 06:52:50;;;;;;;3.33;3.03;;;15.30;43.10;;;;;;5089009;28;45296;-74
2022/12/11 06:55:17;;;;;;;4.22;3.13;;;15.30;43.10;;;;;;5088744;28;46640;-74
2022/12/11 06:57:43;;;;;;;3.20;2.78;;;15.30;43.00;;;;;;5088843;28;45333;-73
2022/12/11 07:00:13;;;;;;;2.38;2.17;;;15.40;43.00;;;;;;5089000;28;45209;-74
2022/12/11 07:02:40;;;;;;;3.47;2.63;;;15.40;42.90;;;;;;5089251;28;45368;-73
2022/12/11 07:05:08;;;;;;;3.90;2.80;;;15.40;42.80;;;;;;5088846;28;45818;-74
2022/12/11 07:07:34;;;;;;;3.92;3.00;;;15.50;42.80;;;;;;5088726;28;45304;-73
2022/12/11 07:10:01;;;;;;;4.30;3.25;;;15.50;42.70;;;;;;5088962;28;45208;-74
2022/12/11 07:12:28;;;;;;;3.20;2.80;;;15.50;42.50;;;;;;5087289;28;45375;-74
2022/12/11 07:14:55;;;;;;;2.92;2.70;;;15.60;42.50;;;;;;5088532;28;46747;-74
2022/12/11 07:17:23;;;;;;;4.05;2.90;;;15.60;42.40;;;;;;5088273;28;45320;-74
2022/12/11 07:19:50;;;;;;;3.47;2.95;;;15.60;42.40;;;;;;5088812;28;45335;-74
2022/12/11 07:22:17;;;;;;;3.50;2.80;;;15.70;42.40;;;;;;5089104;28;45168;-74
2022/12/11 07:24:44;;;;;;;3.25;2.72;;;15.70;42.30;;;;;;5088525;28;45746;-74
2022/12/11 07:27:11;;;;;;;3.70;2.90;;;15.70;42.20;;;;;;5088559;28;45412;-74
2022/12/11 07:29:38;;;;;;;3.60;2.67;;;15.70;42.20;;;;;;5088660;28;45272;-74
2022/12/11 07:32:05;;;;;;;3.42;2.72;;;15.70;42.30;;;;;;5088842;28;45230;-74
2022/12/11 07:34:34;;;;;;;4.25;3.00;;;15.70;42.20;;;;;;5088546;28;46760;-74
2022/12/11 07:37:01;;;;;;;4.38;3.10;;;15.60;42.20;;;;;;5088133;28;45367;-74
2022/12/11 07:39:27;;;;;;;3.78;3.08;;;15.60;42.30;;;;;;5088602;28;45265;-74
2022/12/11 07:41:54;;;;;;;3.25;2.95;;;15.60;42.30;;;;;;5088810;28;45229;-74
2022/12/11 07:44:21;;;;;;;4.60;2.90;;;15.50;42.30;;;;;;5088057;28;46662;-74
2022/12/11 07:46:48;;;;;;;3.97;3.05;;;15.50;42.40;;;;;;5095134;27;45143;-74
2022/12/11 07:49:15;;;;;;;5.03;3.13;;;15.50;42.50;;;;;;5103126;27;45317;-74
2022/12/11 07:51:43;;;;;;;3.38;2.97;;;15.40;42.60;;;;;;5088187;28;45263;-74
2022/12/11 07:54:13;;;;;;;4.53;3.25;;;15.40;42.60;;;;;;5088247;28;46870;-74
2022/12/11 07:56:40;;;;;;;3.70;2.80;;;15.30;42.70;;;;;;5087022;28;45298;-74
2022/12/11 07:59:07;;;;;;;3.50;2.60;;;15.30;43.30;;;;;;5087835;28;45353;-74
2022/12/11 08:01:35;;;;;;;3.20;2.90;;;15.30;42.70;;;;;;5088221;28;45197;-74
2022/12/11 08:04:02;;;;;;;3.53;2.80;;;15.30;42.70;;;;;;5087840;28;46645;-74
2022/12/11 08:06:30;;;;;;;3.55;2.67;;;15.30;42.70;;;;;;5087791;28;45404;-73
2022/12/11 08:08:59;;;;;;;3.78;2.72;;;15.30;42.60;;;;;;5088158;28;45294;-74
2022/12/11 08:11:26;;;;;;;3.08;2.75;;;15.40;42.60;;;;;;5088032;28;45456;-73
2022/12/11 08:13:53;;;;;;;3.63;2.70;;;15.40;42.50;;;;;;5087812;28;46564;-73
2022/12/11 08:16:20;;;;;;;4.43;3.35;;;15.40;42.40;;;;;;5087839;28;45437;-74
2022/12/11 08:18:47;;;;;;;4.93;3.25;;;15.50;42.40;;;;;;5087870;28;45368;-73
2022/12/11 08:21:15;;;;;;;4.10;3.10;;;15.50;42.30;;;;;;5087954;28;45285;-73
2022/12/11 08:23:42;;;;;;;3.83;3.25;;;15.60;42.20;;;;;;5087238;28;45630;-74
2022/12/11 08:26:12;;;;;;;3.90;3.03;;;15.60;42.20;;;;;;5088274;28;44705;-74
2022/12/11 08:28:39;;;;;;;3.33;3.03;;;15.70;42.10;;;;;;5087708;28;45350;-74
2022/12/11 08:31:07;;;;;;;4.22;2.90;;;15.70;42.00;;;;;;5087932;28;45491;-73
2022/12/11 08:33:35;;;;;;;2.85;2.60;;;15.70;41.90;;;;;;5087479;28;46477;-73
2022/12/11 08:36:02;;;;;;;3.10;2.80;;;15.80;41.80;;;;;;5087162;28;45300;-74
2022/12/11 08:38:30;;;;;;;3.28;2.95;;;15.80;41.80;;;;;;5087765;28;45266;-73
2022/12/11 08:40:57;;;;;;;3.95;2.90;;;15.80;41.80;;;;;;5087929;28;45169;-74
2022/12/11 08:43:25;;;;;;;4.18;2.90;;;15.80;41.80;;;;;;5088838;28;46704;-74
2022/12/11 08:45:52;;;;;;;3.95;2.90;;;15.70;41.80;;;;;;5090279;28;45357;-74
2022/12/11 08:48:19;;;;;;;3.97;2.90;;;15.70;41.80;;;;;;5097611;28;45296;-73
2022/12/11 08:50:46;;;;;;;3.58;2.78;;;15.70;42.50;;;;;;5091142;28;45302;-74
2022/12/11 08:53:13;;;;;;;3.15;2.63;;;15.70;41.80;;;;;;5086900;28;45408;-74
2022/12/11 08:55:40;;;;;;;4.22;2.90;;;15.60;41.80;;;;;;5087443;28;45359;-74
2022/12/11 08:58:07;;;;;;;3.17;2.53;;;15.60;41.90;;;;;;5087620;28;45233;-74
2022/12/11 09:00:36;;;;;;;3.47;2.92;;;15.60;42.00;;;;;;5087394;28;45460;-74
2022/12/11 09:03:02;;;;;;;3.53;2.80;;;15.60;42.10;;;;;;5087626;28;47306;-74
2022/12/11 09:05:30;;;;;;;3.05;2.75;;;15.50;42.00;;;;;;5087294;28;45255;-74
2022/12/11 09:07:58;;;;;;;3.65;3.03;;;15.50;42.10;;;;;;5087589;28;45367;-74
2022/12/11 09:10:25;;;;;;;3.25;2.70;;;15.50;42.30;;;;;;5087405;28;45245;-74
2022/12/11 09:12:52;;;;;;;3.20;2.90;;;15.40;42.20;;;;;;5087869;28;46478;-74
2022/12/11 09:15:19;;;;;;;3.38;2.70;;;15.40;42.30;;;;;;5087115;28;45270;-74
2022/12/11 09:17:47;;;;;;;3.03;2.45;;;15.50;42.20;;;;;;5087934;28;45299;-74
2022/12/11 09:20:14;;;;;;;3.15;2.78;;;15.50;42.20;;;;;;5091113;28;45403;-73
2022/12/11 09:22:43;;;;;;;3.13;2.78;;;15.50;42.10;;;;;;5090378;28;46352;-72
2022/12/11 09:25:10;;;;;;;3.53;3.05;;;15.60;42.10;;;;;;5090439;28;45434;-73
2022/12/11 09:27:36;;;;;;;2.92;2.58;;;15.60;42.00;;;;;;5088262;28;45530;-73
2022/12/11 09:30:04;;;;;;;3.38;2.92;;;15.60;41.90;;;;;;5090995;28;45320;-73
2022/12/11 09:32:31;;;;;;;3.05;2.58;;;15.70;41.80;;;;;;5086637;28;46497;-73
2022/12/11 09:34:59;;;;;;;2.72;2.53;;;15.70;41.70;;;;;;5088246;27;45178;-73
2022/12/11 09:37:26;;;;;;;3.25;2.60;;;15.80;41.70;;;;;;5090072;28;45345;-73
2022/12/11 09:39:53;;;;;;;3.25;2.80;;;15.80;41.50;;;;;;5090349;28;45420;-73
2022/12/11 09:42:21;;;;;;;2.80;2.60;;;15.90;41.50;;;;;;5090218;28;45780;-73
2022/12/11 09:44:49;;;;;;;2.78;2.58;;;15.90;41.40;;;;;;5090092;28;45205;-74
2022/12/11 09:47:23;;;;;;;2.90;2.60;;;16.00;41.40;;;;;;5101414;27;45463;-74
2022/12/11 09:49:51;;;;;;;3.00;2.70;;;16.00;41.30;;;;;;5110906;27;45366;-74
2022/12/11 09:52:21;;;;;;;2.97;2.45;;;16.00;41.30;;;;;;5110130;27;45359;-73
2022/12/11 09:54:50;;;;;;;4.40;2.95;;;16.00;41.30;;;;;;5110362;27;45192;-74
2022/12/11 09:57:25;;;;;;;2.55;2.30;;;16.00;41.30;;;;;;5110349;27;45451;-74
2022/12/11 10:00:21;;;;;;;3.05;2.50;;;16.00;41.30;;;;;;5110827;27;45275;-73
2022/12/11 10:03:11;;;;;;;3.47;2.40;;;16.00;41.20;;;;;;5110124;27;45244;-74
2022/12/11 10:05:39;;;;;;;3.22;2.92;;;15.90;41.10;;;;;;5110344;27;45198;-73
2022/12/11 10:08:10;;;;;;;3.30;2.60;;;15.90;41.10;;;;;;5110359;27;45394;-74
2022/12/11 10:10:41;;;;;;;2.88;2.53;;;15.90;41.20;;;;;;5110809;27;45447;-74
2022/12/11 10:13:14;;;;;;;2.92;2.45;;;15.90;41.20;;;;;;5110092;27;45719;-74
2022/12/11 10:15:43;;;;;;;2.88;2.58;;;15.90;41.80;;;;;;5110277;27;45311;-73
2022/12/11 10:18:12;;;;;;;3.33;2.72;;;15.90;41.20;;;;;;5110136;27;45319;-73
2022/12/11 10:20:41;;;;;;;2.72;2.53;;;15.90;41.20;;;;;;5110292;27;45255;-73
2022/12/11 10:23:13;;;;;;;4.10;3.20;;;15.90;41.80;;;;;;5109545;27;45316;-73
2022/12/11 10:25:41;;;;;;;4.43;3.03;;;15.80;41.40;;;;;;5109656;27;45205;-73
2022/12/11 10:28:11;;;;;;;5.75;2.72;;;15.80;41.30;;;;;;5109831;27;45345;-78
2022/12/11 10:30:38;;;;;;;4.50;3.53;;;15.90;41.20;;;;;;5110129;27;45304;-74
2022/12/11 10:33:08;;;;;;;3.47;3.10;;;15.90;41.10;;;;;;5109210;27;45492;-71
2022/12/11 10:35:36;;;;;;;3.88;2.63;;;15.90;41.10;;;;;;5109448;27;45332;-72
2022/12/11 10:38:13;;;;;;;5.20;2.83;;;16.00;41.10;;;;;;5109594;27;45196;-70
2022/12/11 10:40:41;;;;;;;3.60;2.80;;;16.00;41.00;;;;;;5109535;27;45475;-70
2022/12/11 10:43:09;;;;;;;4.25;3.13;;;16.10;40.90;;;;;;5109205;27;45547;-70
2022/12/11 10:45:36;;;;;;;5.75;3.58;;;16.10;40.90;;;;;;5108387;27;45254;-72
2022/12/11 10:48:04;;;;;;;3.95;3.55;;;16.20;40.60;;;;;;5099034;27;45312;-80
2022/12/11 10:50:31;;;;;;;3.78;3.33;;;16.30;40.60;;;;;;5107366;27;45538;-79
2022/12/11 10:52:58;;;;;;;6.90;3.17;;;16.40;41.50;;;;;;5112038;27;46387;-77
2022/12/11 10:55:28;;;;;;;11.80;6.78;;;16.60;41.50;;;;;;5111864;27;45195;-75
2022/12/11 10:57:56;;;;;;;7.95;6.03;;;16.80;41.00;;;;;;5115492;27;45184;-78
2022/12/11 11:00:34;;;;;;;7.80;5.50;;;16.90;41.60;;;;;;5112205;27;45229;-79
2022/12/11 11:03:02;;;;;;;6.07;5.28;;;17.00;41.60;;;;;;5116094;27;46872;-79
2022/12/11 11:05:30;;;;;;;5.88;4.85;;;17.10;41.40;;;;;;5112437;27;45249;-77
2022/12/11 11:08:13;;;;;;;6.47;4.93;;;17.20;41.10;;;;;;5095111;27;45474;-75
2022/12/11 11:10:51;;;;;;;5.03;3.83;;;17.20;40.50;;;;;;5070711;28;45303;-71
2022/12/11 11:13:20;;;;;;;6.28;3.78;;;17.30;40.30;;;;;;5089135;28;46509;-75
2022/12/11 11:15:47;;;;;;;6.38;4.65;;;17.30;40.00;;;;;;5088641;28;45189;-70
2022/12/11 11:18:20;;;;;;;7.43;4.72;;;17.30;40.60;;;;;;5088283;28;45331;-72
2022/12/11 11:20:47;;;;;;;8.25;4.50;;;17.30;40.40;;;;;;5088448;28;45227;-75
2022/12/11 11:23:15;;;;;;;6.07;4.38;;;17.20;41.00;;;;;;5087815;28;46754;-71
2022/12/11 11:25:50;;;;;;;5.88;4.50;;;17.10;40.30;;;;;;5088219;28;45320;-74
2022/12/11 11:28:20;;;;;;;7.07;4.70;;;17.00;40.90;;;;;;5088221;28;45362;-70
2022/12/11 11:30:59;;;;;;;5.97;4.28;;;16.90;41.70;;;;;;5088065;28;45245;-71
2022/12/11 11:33:26;;;;;;;6.65;4.90;;;16.90;42.00;;;;;;5083278;28;46366;-79
2022/12/11 11:35:54;;;;;;;8.15;5.57;;;16.90;42.10;;;;;;5076975;28;45462;-78
2022/12/11 11:38:22;;;;;;;10.57;7.35;;;16.80;41.50;;;;;;5073738;28;45486;-79
2022/12/11 11:40:53;;;;;;;11.20;6.85;;;16.70;41.20;;;;;;5067582;28;45385;-73
2022/12/11 11:43:32;;;;;;;9.50;6.53;;;16.60;41.50;;;;;;5067541;28;46406;-74
2022/12/11 11:46:01;;;;;;;8.82;6.20;;;16.50;41.60;;;;;;5073879;27;45681;-75
2022/12/11 11:48:36;;;;;;;9.45;6.80;;;16.40;41.50;;;;;;5080544;27;45288;-70
2022/12/11 11:51:08;;;;;;;10.77;5.63;;;16.40;41.60;;;;;;5079817;28;45426;-69
2022/12/11 11:53:39;;;;;;;9.13;6.30;;;16.50;41.60;;;;;;5079273;28;46300;-71
2022/12/11 11:56:12;;;;;;;7.80;6.20;;;16.50;41.30;;;;;;5075000;28;45338;-73
2022/12/11 11:58:41;;;;;;;14.88;6.45;;;16.50;41.40;;;;;;5079428;28;45482;-69
2022/12/11 12:01:12;;;;;;;9.43;5.50;;;16.50;41.40;;;;;;5078739;28;45432;-69
2022/12/11 12:03:39;;;;;;;12.15;5.40;;;16.40;41.10;;;;;;5077277;28;45522;-67
2022/12/11 12:06:09;;;;;;;10.55;6.30;;;16.40;41.20;;;;;;5086210;28;45232;-68
2022/12/11 12:08:41;;;;;;;9.70;5.95;;;16.30;41.30;;;;;;5086781;27;45308;-72
2022/12/11 12:11:14;;;;;;;11.05;6.97;;;16.10;41.10;;;;;;5087501;28;45445;-73
2022/12/11 12:13:45;;;;;;;11.90;6.55;;;16.00;41.60;;;;;;5087264;28;46398;-71
2022/12/11 12:16:15;;;;;;;16.55;6.85;;;16.00;41.70;;;;;;5087205;28;45314;-72
2022/12/11 12:18:45;;;;;;;13.73;6.57;;;16.00;41.70;;;;;;5086852;28;45190;-74
2022/12/11 12:21:16;;;;;;;13.80;6.65;;;16.10;42.10;;;;;;5087523;28;45320;-69
2022/12/11 12:23:53;;;;;;;14.63;6.35;;;16.10;42.30;;;;;;5087127;28;46887;-70
2022/12/11 12:26:25;;;;;;;13.75;6.10;;;16.30;42.30;;;;;;5087067;28;45222;-73
2022/12/11 12:28:57;;;;;;;11.63;5.88;;;16.40;42.60;;;;;;5087194;28;45243;-71
2022/12/11 12:31:41;;;;;;;16.85;6.60;;;16.50;41.80;;;;;;5077798;28;45396;-75
2022/12/11 12:34:13;;;;;;;9.40;6.13;;;16.60;41.80;;;;;;5076475;28;45595;-78
2022/12/11 12:36:43;;;;;;;12.27;6.60;;;16.60;41.80;;;;;;5075888;28;45212;-74
2022/12/11 12:39:13;;;;;;;13.30;6.32;;;16.60;41.80;;;;;;5074804;28;45265;-75
2022/12/11 12:41:44;;;;;;;14.75;6.63;;;16.60;41.60;;;;;;5087590;28;45237;-74
2022/12/11 12:44:15;;;;;;;12.63;6.22;;;16.60;41.50;;;;;;5079551;28;46669;-74
2022/12/11 12:46:57;;;;;;;15.55;6.53;;;16.60;41.40;;;;;;5092424;27;45463;-73
2022/12/11 12:49:31;;;;;;;10.23;5.55;;;16.60;41.90;;;;;;5100537;27;45222;-70
2022/12/11 12:51:57;;;;;;;8.23;5.47;;;16.60;42.20;;;;;;5086827;28;45227;-71
2022/12/11 12:54:25;;;;;;;8.38;5.60;;;16.70;43.20;;;;;;5086521;28;45472;-72
2022/12/11 12:56:53;;;;;;;10.07;5.85;;;16.60;44.20;;;;;;5086402;28;45381;-72
2022/12/11 12:59:21;;;;;;;10.90;5.65;;;16.60;44.00;;;;;;5086927;28;45427;-73
2022/12/11 13:01:51;;;;;;;8.63;5.72;;;16.60;44.50;;;;;;5087232;28;45193;-73